sensor_id;sensor_type;location;lat;lon;timestamp;temperature;humidity
37204;DHT22;23098;48.054;10.636;2023-08-21T00:02:19;21.30;97.40
37204;DHT22;23098;48.054;10.636;2023-08-21T00:04:44;21.20;97.40
37204;DHT22;23098;48.054;10.636;2023-08-21T00:07:09;21.30;97.30
37204;DHT22;23098;48.054;10.636;2023-08-21T00:09:37;21.20;97.40
37204;DHT22;23098;48.054;10.636;2023-08-21T00:12:02;21.20;97.30
37204;DHT22;23098;48.054;10.636;2023-08-21T00:14:28;21.20;97.30
37204;DHT22;23098;48.054;10.636;2023-08-21T00:16:53;21.20;97.30
37204;DHT22;23098;48.054;10.636;2023-08-21T00:19:19;21.10;97.50
37204;DHT22;23098;48.054;10.636;2023-08-21T00:21:45;21.10;97.80
37204;DHT22;23098;48.054;10.636;2023-08-21T00:24:10;21.00;97.90
37204;DHT22;23098;48.054;10.636;2023-08-21T00:26:36;21.00;97.90
37204;DHT22;23098;48.054;10.636;2023-08-21T00:29:02;20.90;98.00
37204;DHT22;23098;48.054;10.636;2023-08-21T00:31:27;20.90;98.00
37204;DHT22;23098;48.054;10.636;2023-08-21T00:33:53;20.80;98.30
37204;DHT22;23098;48.054;10.636;2023-08-21T00:36:18;20.70;98.30
37204;DHT22;23098;48.054;10.636;2023-08-21T00:38:45;20.60;98.40
37204;DHT22;23098;48.054;10.636;2023-08-21T00:41:11;20.60;98.30
37204;DHT22;23098;48.054;10.636;2023-08-21T00:43:37;20.50;98.40
37204;DHT22;23098;48.054;10.636;2023-08-21T00:46:02;20.50;98.60
37204;DHT22;23098;48.054;10.636;2023-08-21T00:48:28;20.50;98.60
37204;DHT22;23098;48.054;10.636;2023-08-21T00:50:54;20.50;98.70
37204;DHT22;23098;48.054;10.636;2023-08-21T00:53:20;20.50;98.60
37204;DHT22;23098;48.054;10.636;2023-08-21T00:55:46;20.40;98.70
37204;DHT22;23098;48.054;10.636;2023-08-21T00:58:12;20.40;98.80
37204;DHT22;23098;48.054;10.636;2023-08-21T01:00:39;20.40;98.70
37204;DHT22;23098;48.054;10.636;2023-08-21T01:03:05;20.40;98.70
37204;DHT22;23098;48.054;10.636;2023-08-21T01:05:31;20.30;98.80
37204;DHT22;23098;48.054;10.636;2023-08-21T01:13:48;20.20;99.00
37204;DHT22;23098;48.054;10.636;2023-08-21T01:16:20;20.20;99.10
37204;DHT22;23098;48.054;10.636;2023-08-21T01:18:47;20.10;99.20
37204;DHT22;23098;48.054;10.636;2023-08-21T01:21:14;20.10;99.10
37204;DHT22;23098;48.054;10.636;2023-08-21T01:23:41;20.10;99.20
37204;DHT22;23098;48.054;10.636;2023-08-21T01:26:09;20.00;99.40
37204;DHT22;23098;48.054;10.636;2023-08-21T01:28:35;20.00;99.50
37204;DHT22;23098;48.054;10.636;2023-08-21T01:31:09;20.00;99.50
37204;DHT22;23098;48.054;10.636;2023-08-21T01:33:44;19.90;99.60
37204;DHT22;23098;48.054;10.636;2023-08-21T01:36:10;19.90;99.80
37204;DHT22;23098;48.054;10.636;2023-08-21T01:38:36;19.80;99.80
37204;DHT22;23098;48.054;10.636;2023-08-21T01:41:02;19.80;99.80
37204;DHT22;23098;48.054;10.636;2023-08-21T01:43:28;19.80;99.90
37204;DHT22;23098;48.054;10.636;2023-08-21T01:45:54;19.70;99.90
37204;DHT22;23098;48.054;10.636;2023-08-21T01:48:20;19.80;99.90
37204;DHT22;23098;48.054;10.636;2023-08-21T01:50:45;19.70;99.90
37204;DHT22;23098;48.054;10.636;2023-08-21T01:53:11;19.50;99.90
37204;DHT22;23098;48.054;10.636;2023-08-21T01:55:36;19.50;99.90
37204;DHT22;23098;48.054;10.636;2023-08-21T01:58:02;19.40;99.90
37204;DHT22;23098;48.054;10.636;2023-08-21T02:00:27;19.50;99.90
37204;DHT22;23098;48.054;10.636;2023-08-21T02:02:53;19.50;99.90
37204;DHT22;23098;48.054;10.636;2023-08-21T02:05:18;19.30;99.90
37204;DHT22;23098;48.054;10.636;2023-08-21T02:07:44;19.30;99.90
37204;DHT22;23098;48.054;10.636;2023-08-21T02:10:10;19.30;99.90
37204;DHT22;23098;48.054;10.636;2023-08-21T02:12:35;19.30;99.90
37204;DHT22;23098;48.054;10.636;2023-08-21T02:15:01;19.30;99.90
37204;DHT22;23098;48.054;10.636;2023-08-21T02:17:26;19.20;99.90
37204;DHT22;23098;48.054;10.636;2023-08-21T02:19:52;19.10;99.90
37204;DHT22;23098;48.054;10.636;2023-08-21T02:22:18;19.10;99.90
37204;DHT22;23098;48.054;10.636;2023-08-21T02:24:43;19.20;99.90
37204;DHT22;23098;48.054;10.636;2023-08-21T02:27:09;19.10;99.90
37204;DHT22;23098;48.054;10.636;2023-08-21T02:29:34;19.10;99.90
37204;DHT22;23098;48.054;10.636;2023-08-21T02:32:00;19.10;99.90
37204;DHT22;23098;48.054;10.636;2023-08-21T02:34:26;19.10;99.90
37204;DHT22;23098;48.054;10.636;2023-08-21T02:36:52;19.10;99.90
37204;DHT22;23098;48.054;10.636;2023-08-21T02:39:17;19.10;99.90
37204;DHT22;23098;48.054;10.636;2023-08-21T02:41:43;19.00;99.90
37204;DHT22;23098;48.054;10.636;2023-08-21T02:44:08;18.90;99.90
37204;DHT22;23098;48.054;10.636;2023-08-21T02:46:34;18.90;99.90
37204;DHT22;23098;48.054;10.636;2023-08-21T02:49:01;18.80;99.90
37204;DHT22;23098;48.054;10.636;2023-08-21T02:51:27;18.70;99.90
37204;DHT22;23098;48.054;10.636;2023-08-21T02:53:53;18.70;99.90
37204;DHT22;23098;48.054;10.636;2023-08-21T02:56:18;18.70;99.90
37204;DHT22;23098;48.054;10.636;2023-08-21T02:58:44;18.70;99.90
37204;DHT22;23098;48.054;10.636;2023-08-21T03:01:09;18.60;99.90
37204;DHT22;23098;48.054;10.636;2023-08-21T03:03:35;18.60;99.90
37204;DHT22;23098;48.054;10.636;2023-08-21T03:06:01;18.60;99.90
37204;DHT22;23098;48.054;10.636;2023-08-21T03:08:27;18.60;99.90
37204;DHT22;23098;48.054;10.636;2023-08-21T03:10:52;18.60;99.90
37204;DHT22;23098;48.054;10.636;2023-08-21T03:13:18;18.50;99.90
37204;DHT22;23098;48.054;10.636;2023-08-21T03:15:43;18.50;99.90
37204;DHT22;23098;48.054;10.636;2023-08-21T03:18:10;18.40;99.90
37204;DHT22;23098;48.054;10.636;2023-08-21T03:20:35;18.50;99.90
37204;DHT22;23098;48.054;10.636;2023-08-21T03:23:01;18.50;99.90
37204;DHT22;23098;48.054;10.636;2023-08-21T03:25:27;18.50;99.90
37204;DHT22;23098;48.054;10.636;2023-08-21T03:27:53;18.30;99.90
37204;DHT22;23098;48.054;10.636;2023-08-21T03:30:19;18.10;99.90
37204;DHT22;23098;48.054;10.636;2023-08-21T03:32:45;18.10;99.90
37204;DHT22;23098;48.054;10.636;2023-08-21T03:35:11;18.10;99.90
37204;DHT22;23098;48.054;10.636;2023-08-21T03:37:36;18.20;99.90
37204;DHT22;23098;48.054;10.636;2023-08-21T03:40:03;18.30;99.90
37204;DHT22;23098;48.054;10.636;2023-08-21T03:42:29;18.30;99.90
37204;DHT22;23098;48.054;10.636;2023-08-21T03:44:54;18.20;99.90
37204;DHT22;23098;48.054;10.636;2023-08-21T03:47:20;18.20;99.90
37204;DHT22;23098;48.054;10.636;2023-08-21T03:49:45;18.20;99.90
37204;DHT22;23098;48.054;10.636;2023-08-21T03:52:13;18.20;99.90
37204;DHT22;23098;48.054;10.636;2023-08-21T03:54:39;18.10;99.90
37204;DHT22;23098;48.054;10.636;2023-08-21T03:57:05;18.10;99.90
37204;DHT22;23098;48.054;10.636;2023-08-21T03:59:30;18.10;99.90
37204;DHT22;23098;48.054;10.636;2023-08-21T04:01:56;18.10;99.90
37204;DHT22;23098;48.054;10.636;2023-08-21T04:04:21;18.00;99.90
37204;DHT22;23098;48.054;10.636;2023-08-21T04:06:47;18.00;99.90
37204;DHT22;23098;48.054;10.636;2023-08-21T04:09:12;18.00;99.90
37204;DHT22;23098;48.054;10.636;2023-08-21T04:11:38;18.00;99.90
37204;DHT22;23098;48.054;10.636;2023-08-21T04:14:04;18.00;99.90
37204;DHT22;23098;48.054;10.636;2023-08-21T04:16:29;18.00;99.90
37204;DHT22;23098;48.054;10.636;2023-08-21T04:18:56;18.00;99.90
37204;DHT22;23098;48.054;10.636;2023-08-21T04:21:21;18.00;99.90
37204;DHT22;23098;48.054;10.636;2023-08-21T04:23:47;18.00;99.90
37204;DHT22;23098;48.054;10.636;2023-08-21T04:26:12;18.00;99.90
37204;DHT22;23098;48.054;10.636;2023-08-21T04:28:38;18.00;99.90
37204;DHT22;23098;48.054;10.636;2023-08-21T04:31:07;18.10;99.90
37204;DHT22;23098;48.054;10.636;2023-08-21T04:33:33;18.10;99.90
37204;DHT22;23098;48.054;10.636;2023-08-21T04:35:59;18.00;99.90
37204;DHT22;23098;48.054;10.636;2023-08-21T04:38:25;18.10;99.90
37204;DHT22;23098;48.054;10.636;2023-08-21T04:40:51;18.10;99.90
37204;DHT22;23098;48.054;10.636;2023-08-21T04:43:16;18.20;99.90
37204;DHT22;23098;48.054;10.636;2023-08-21T04:45:49;18.60;99.90
37204;DHT22;23098;48.054;10.636;2023-08-21T04:48:15;18.70;99.90
37204;DHT22;23098;48.054;10.636;2023-08-21T04:50:41;18.80;99.90
37204;DHT22;23098;48.054;10.636;2023-08-21T04:53:06;19.20;99.90
37204;DHT22;23098;48.054;10.636;2023-08-21T04:55:32;19.50;99.90
37204;DHT22;23098;48.054;10.636;2023-08-21T04:57:58;19.90;99.90
37204;DHT22;23098;48.054;10.636;2023-08-21T05:00:23;20.50;99.90
37204;DHT22;23098;48.054;10.636;2023-08-21T05:02:50;21.30;99.20
37204;DHT22;23098;48.054;10.636;2023-08-21T05:05:15;22.00;97.80
37204;DHT22;23098;48.054;10.636;2023-08-21T05:07:41;22.60;96.50
37204;DHT22;23098;48.054;10.636;2023-08-21T05:10:07;22.90;95.80
37204;DHT22;23098;48.054;10.636;2023-08-21T05:12:32;23.10;95.30
37204;DHT22;23098;48.054;10.636;2023-08-21T05:14:58;23.40;94.50
37204;DHT22;23098;48.054;10.636;2023-08-21T05:17:24;23.70;94.00
37204;DHT22;23098;48.054;10.636;2023-08-21T05:19:51;23.40;94.00
37204;DHT22;23098;48.054;10.636;2023-08-21T05:22:16;23.60;94.00
37204;DHT22;23098;48.054;10.636;2023-08-21T05:24:42;23.30;94.40
37204;DHT22;23098;48.054;10.636;2023-08-21T05:27:07;23.80;94.10
37204;DHT22;23098;48.054;10.636;2023-08-21T05:29:33;23.90;93.70
37204;DHT22;23098;48.054;10.636;2023-08-21T05:31:59;24.30;92.90
37204;DHT22;23098;48.054;10.636;2023-08-21T05:34:25;24.20;92.90
37204;DHT22;23098;48.054;10.636;2023-08-21T05:36:51;24.10;93.00
37204;DHT22;23098;48.054;10.636;2023-08-21T05:39:19;24.10;93.40
37204;DHT22;23098;48.054;10.636;2023-08-21T05:41:45;23.50;93.60
37204;DHT22;23098;48.054;10.636;2023-08-21T05:44:10;23.10;93.90
37204;DHT22;23098;48.054;10.636;2023-08-21T05:46:36;23.20;94.40
37204;DHT22;23098;48.054;10.636;2023-08-21T05:49:03;23.00;94.30
37204;DHT22;23098;48.054;10.636;2023-08-21T05:51:29;23.20;94.30
37204;DHT22;23098;48.054;10.636;2023-08-21T05:53:54;23.30;94.20
37204;DHT22;23098;48.054;10.636;2023-08-21T05:56:21;23.20;94.50
37204;DHT22;23098;48.054;10.636;2023-08-21T05:58:47;23.30;94.60
37204;DHT22;23098;48.054;10.636;2023-08-21T06:01:12;23.40;94.10
37204;DHT22;23098;48.054;10.636;2023-08-21T06:03:38;23.40;94.50
37204;DHT22;23098;48.054;10.636;2023-08-21T06:06:03;23.50;94.40
37204;DHT22;23098;48.054;10.636;2023-08-21T06:08:29;23.50;94.60
37204;DHT22;23098;48.054;10.636;2023-08-21T06:10:55;23.50;94.90
37204;DHT22;23098;48.054;10.636;2023-08-21T06:13:21;23.70;94.50
37204;DHT22;23098;48.054;10.636;2023-08-21T06:15:46;24.60;94.30
37204;DHT22;23098;48.054;10.636;2023-08-21T06:18:13;25.60;93.40
37204;DHT22;23098;48.054;10.636;2023-08-21T06:20:38;26.50;92.10
37204;DHT22;23098;48.054;10.636;2023-08-21T06:23:04;27.50;90.80
37204;DHT22;23098;48.054;10.636;2023-08-21T06:25:30;28.10;90.10
37204;DHT22;23098;48.054;10.636;2023-08-21T06:27:58;28.60;89.20
37204;DHT22;23098;48.054;10.636;2023-08-21T06:30:24;28.70;89.80
37204;DHT22;23098;48.054;10.636;2023-08-21T06:32:50;29.00;88.60
37204;DHT22;23098;48.054;10.636;2023-08-21T06:35:16;29.20;87.90
37204;DHT22;23098;48.054;10.636;2023-08-21T06:37:42;29.20;87.50
37204;DHT22;23098;48.054;10.636;2023-08-21T06:40:08;29.50;85.70
37204;DHT22;23098;48.054;10.636;2023-08-21T06:42:33;29.50;86.10
37204;DHT22;23098;48.054;10.636;2023-08-21T06:44:59;29.70;85.80
37204;DHT22;23098;48.054;10.636;2023-08-21T06:47:24;29.50;85.90
37204;DHT22;23098;48.054;10.636;2023-08-21T06:49:50;29.00;85.30
37204;DHT22;23098;48.054;10.636;2023-08-21T06:52:16;28.50;86.60
37204;DHT22;23098;48.054;10.636;2023-08-21T06:54:41;27.80;90.00
37204;DHT22;23098;48.054;10.636;2023-08-21T06:57:07;27.40;89.90
37204;DHT22;23098;48.054;10.636;2023-08-21T06:59:32;27.10;90.40
37204;DHT22;23098;48.054;10.636;2023-08-21T07:02:04;26.70;90.90
37204;DHT22;23098;48.054;10.636;2023-08-21T07:04:29;26.60;91.60
37204;DHT22;23098;48.054;10.636;2023-08-21T07:06:55;26.50;91.20
37204;DHT22;23098;48.054;10.636;2023-08-21T07:09:20;26.30;91.90
37204;DHT22;23098;48.054;10.636;2023-08-21T07:11:46;26.10;92.00
37204;DHT22;23098;48.054;10.636;2023-08-21T07:14:11;26.20;92.50
37204;DHT22;23098;48.054;10.636;2023-08-21T07:16:39;26.20;92.10
37204;DHT22;23098;48.054;10.636;2023-08-21T07:19:05;26.30;92.00
37204;DHT22;23098;48.054;10.636;2023-08-21T07:21:30;26.40;92.10
37204;DHT22;23098;48.054;10.636;2023-08-21T07:23:56;26.40;92.20
37204;DHT22;23098;48.054;10.636;2023-08-21T07:26:21;26.50;92.60
37204;DHT22;23098;48.054;10.636;2023-08-21T07:28:47;26.50;92.00
37204;DHT22;23098;48.054;10.636;2023-08-21T07:31:12;26.50;92.20
37204;DHT22;23098;48.054;10.636;2023-08-21T07:33:38;26.50;92.40
37204;DHT22;23098;48.054;10.636;2023-08-21T07:36:05;26.60;92.50
37204;DHT22;23098;48.054;10.636;2023-08-21T07:38:31;26.70;92.30
37204;DHT22;23098;48.054;10.636;2023-08-21T07:41:08;26.70;91.90
37204;DHT22;23098;48.054;10.636;2023-08-21T07:43:41;26.80;92.20
37204;DHT22;23098;48.054;10.636;2023-08-21T07:46:09;26.80;92.00
37204;DHT22;23098;48.054;10.636;2023-08-21T07:48:36;27.00;92.10
37204;DHT22;23098;48.054;10.636;2023-08-21T07:51:02;27.00;91.60
37204;DHT22;23098;48.054;10.636;2023-08-21T07:53:28;27.10;91.50
37204;DHT22;23098;48.054;10.636;2023-08-21T07:55:53;27.10;91.40
37204;DHT22;23098;48.054;10.636;2023-08-21T07:58:19;27.10;91.10
37204;DHT22;23098;48.054;10.636;2023-08-21T08:00:45;27.20;91.20
37204;DHT22;23098;48.054;10.636;2023-08-21T08:03:11;27.30;90.80
37204;DHT22;23098;48.054;10.636;2023-08-21T08:05:39;27.30;90.90
37204;DHT22;23098;48.054;10.636;2023-08-21T08:08:05;27.30;90.60
37204;DHT22;23098;48.054;10.636;2023-08-21T08:10:31;27.30;90.90
37204;DHT22;23098;48.054;10.636;2023-08-21T08:12:56;27.30;90.70
37204;DHT22;23098;48.054;10.636;2023-08-21T08:15:22;27.40;90.60
37204;DHT22;23098;48.054;10.636;2023-08-21T08:17:48;27.50;91.00
37204;DHT22;23098;48.054;10.636;2023-08-21T08:20:17;27.50;90.40
37204;DHT22;23098;48.054;10.636;2023-08-21T08:22:43;27.40;90.60
37204;DHT22;23098;48.054;10.636;2023-08-21T08:25:08;27.40;90.90
37204;DHT22;23098;48.054;10.636;2023-08-21T08:27:34;27.40;90.50
37204;DHT22;23098;48.054;10.636;2023-08-21T08:30:00;27.60;90.20
37204;DHT22;23098;48.054;10.636;2023-08-21T08:32:26;27.70;90.10
37204;DHT22;23098;48.054;10.636;2023-08-21T08:34:54;27.80;89.80
37204;DHT22;23098;48.054;10.636;2023-08-21T08:37:20;27.90;89.30
37204;DHT22;23098;48.054;10.636;2023-08-21T08:39:46;27.90;88.50
37204;DHT22;23098;48.054;10.636;2023-08-21T08:42:13;28.00;88.50
37204;DHT22;23098;48.054;10.636;2023-08-21T08:44:40;28.10;87.50
37204;DHT22;23098;48.054;10.636;2023-08-21T08:47:06;28.30;87.60
37204;DHT22;23098;48.054;10.636;2023-08-21T08:49:32;28.40;88.10
37204;DHT22;23098;48.054;10.636;2023-08-21T08:51:59;28.40;88.50
37204;DHT22;23098;48.054;10.636;2023-08-21T08:54:25;28.60;86.90
37204;DHT22;23098;48.054;10.636;2023-08-21T08:56:51;28.70;86.10
37204;DHT22;23098;48.054;10.636;2023-08-21T08:59:17;28.80;87.00
37204;DHT22;23098;48.054;10.636;2023-08-21T09:01:43;29.10;86.60
37204;DHT22;23098;48.054;10.636;2023-08-21T09:04:09;29.30;86.00
37204;DHT22;23098;48.054;10.636;2023-08-21T09:06:35;29.20;84.40
37204;DHT22;23098;48.054;10.636;2023-08-21T09:09:00;29.50;85.80
37204;DHT22;23098;48.054;10.636;2023-08-21T09:11:26;29.60;85.20
37204;DHT22;23098;48.054;10.636;2023-08-21T09:13:53;29.30;84.50
37204;DHT22;23098;48.054;10.636;2023-08-21T09:16:19;29.30;84.50
37204;DHT22;23098;48.054;10.636;2023-08-21T09:18:49;29.30;84.70
37204;DHT22;23098;48.054;10.636;2023-08-21T09:21:22;29.50;84.20
37204;DHT22;23098;48.054;10.636;2023-08-21T09:23:56;29.70;82.90
37204;DHT22;23098;48.054;10.636;2023-08-21T09:26:23;29.70;82.20
37204;DHT22;23098;48.054;10.636;2023-08-21T09:28:49;29.70;83.30
37204;DHT22;23098;48.054;10.636;2023-08-21T09:31:15;30.00;83.80
37204;DHT22;23098;48.054;10.636;2023-08-21T09:33:42;30.20;85.10
37204;DHT22;23098;48.054;10.636;2023-08-21T09:36:09;30.20;81.00
37204;DHT22;23098;48.054;10.636;2023-08-21T09:38:38;30.40;82.20
37204;DHT22;23098;48.054;10.636;2023-08-21T09:41:05;30.10;80.80
37204;DHT22;23098;48.054;10.636;2023-08-21T09:43:31;30.50;81.60
37204;DHT22;23098;48.054;10.636;2023-08-21T09:45:56;30.60;80.90
37204;DHT22;23098;48.054;10.636;2023-08-21T09:48:23;30.70;81.40
37204;DHT22;23098;48.054;10.636;2023-08-21T09:50:50;30.20;80.40
37204;DHT22;23098;48.054;10.636;2023-08-21T09:53:16;30.30;81.90
37204;DHT22;23098;48.054;10.636;2023-08-21T09:55:42;30.50;81.20
37204;DHT22;23098;48.054;10.636;2023-08-21T09:58:08;30.70;80.40
37204;DHT22;23098;48.054;10.636;2023-08-21T10:00:36;30.60;79.60
37204;DHT22;23098;48.054;10.636;2023-08-21T10:03:05;30.70;79.30
37204;DHT22;23098;48.054;10.636;2023-08-21T10:05:33;30.90;80.00
37204;DHT22;23098;48.054;10.636;2023-08-21T10:08:04;31.00;78.10
37204;DHT22;23098;48.054;10.636;2023-08-21T10:10:31;30.90;78.40
37204;DHT22;23098;48.054;10.636;2023-08-21T10:12:58;31.00;80.10
37204;DHT22;23098;48.054;10.636;2023-08-21T10:15:24;31.30;80.40
37204;DHT22;23098;48.054;10.636;2023-08-21T10:17:50;31.30;77.90
37204;DHT22;23098;48.054;10.636;2023-08-21T10:20:21;31.10;78.70
37204;DHT22;23098;48.054;10.636;2023-08-21T10:22:49;31.00;78.20
37204;DHT22;23098;48.054;10.636;2023-08-21T10:25:17;30.90;78.20
37204;DHT22;23098;48.054;10.636;2023-08-21T10:27:45;31.00;77.70
37204;DHT22;23098;48.054;10.636;2023-08-21T10:30:15;30.90;77.10
37204;DHT22;23098;48.054;10.636;2023-08-21T10:32:48;31.00;76.60
37204;DHT22;23098;48.054;10.636;2023-08-21T10:35:19;31.20;77.00
37204;DHT22;23098;48.054;10.636;2023-08-21T10:38:13;31.50;74.10
37204;DHT22;23098;48.054;10.636;2023-08-21T10:41:03;31.60;74.20
37204;DHT22;23098;48.054;10.636;2023-08-21T10:43:45;32.00;76.20
37204;DHT22;23098;48.054;10.636;2023-08-21T10:46:12;32.00;73.00
37204;DHT22;23098;48.054;10.636;2023-08-21T10:48:39;31.90;72.00
37204;DHT22;23098;48.054;10.636;2023-08-21T10:51:06;32.30;72.50
37204;DHT22;23098;48.054;10.636;2023-08-21T10:53:33;32.20;72.20
37204;DHT22;23098;48.054;10.636;2023-08-21T10:56:05;32.40;72.50
37204;DHT22;23098;48.054;10.636;2023-08-21T10:58:50;32.30;72.80
37204;DHT22;23098;48.054;10.636;2023-08-21T11:01:16;32.10;73.30
37204;DHT22;23098;48.054;10.636;2023-08-21T11:03:46;32.10;73.50
37204;DHT22;23098;48.054;10.636;2023-08-21T11:06:11;32.10;72.70
37204;DHT22;23098;48.054;10.636;2023-08-21T11:08:59;32.50;72.40
37204;DHT22;23098;48.054;10.636;2023-08-21T11:11:28;32.90;73.80
37204;DHT22;23098;48.054;10.636;2023-08-21T11:13:54;32.90;73.30
37204;DHT22;23098;48.054;10.636;2023-08-21T11:16:20;33.10;72.90
37204;DHT22;23098;48.054;10.636;2023-08-21T11:18:45;33.50;73.80
37204;DHT22;23098;48.054;10.636;2023-08-21T11:21:12;33.00;72.20
37204;DHT22;23098;48.054;10.636;2023-08-21T11:23:39;33.00;72.70
37204;DHT22;23098;48.054;10.636;2023-08-21T11:26:06;33.20;72.20
37204;DHT22;23098;48.054;10.636;2023-08-21T11:28:32;33.20;72.60
37204;DHT22;23098;48.054;10.636;2023-08-21T11:30:59;33.50;72.00
37204;DHT22;23098;48.054;10.636;2023-08-21T11:33:26;33.50;73.00
37204;DHT22;23098;48.054;10.636;2023-08-21T11:35:52;33.30;72.30
37204;DHT22;23098;48.054;10.636;2023-08-21T11:38:23;33.10;73.40
37204;DHT22;23098;48.054;10.636;2023-08-21T11:43:18;33.40;73.10
37204;DHT22;23098;48.054;10.636;2023-08-21T11:45:46;33.30;72.50
37204;DHT22;23098;48.054;10.636;2023-08-21T11:48:11;33.70;73.50
37204;DHT22;23098;48.054;10.636;2023-08-21T11:50:37;33.90;71.20
37204;DHT22;23098;48.054;10.636;2023-08-21T11:53:03;34.30;74.10
37204;DHT22;23098;48.054;10.636;2023-08-21T11:55:29;34.30;72.60
37204;DHT22;23098;48.054;10.636;2023-08-21T11:57:54;34.00;71.20
37204;DHT22;23098;48.054;10.636;2023-08-21T12:00:27;33.90;71.70
37204;DHT22;23098;48.054;10.636;2023-08-21T12:02:58;33.80;71.90
37204;DHT22;23098;48.054;10.636;2023-08-21T12:05:24;33.90;72.10
37204;DHT22;23098;48.054;10.636;2023-08-21T12:07:50;33.70;72.00
37204;DHT22;23098;48.054;10.636;2023-08-21T12:10:23;33.70;72.70
37204;DHT22;23098;48.054;10.636;2023-08-21T12:12:48;33.90;72.40
37204;DHT22;23098;48.054;10.636;2023-08-21T12:15:14;33.70;72.10
37204;DHT22;23098;48.054;10.636;2023-08-21T12:17:39;33.50;71.80
37204;DHT22;23098;48.054;10.636;2023-08-21T12:20:05;33.70;73.70
37204;DHT22;23098;48.054;10.636;2023-08-21T12:22:36;33.40;72.80
37204;DHT22;23098;48.054;10.636;2023-08-21T12:25:02;33.30;73.70
37204;DHT22;23098;48.054;10.636;2023-08-21T12:27:30;33.70;73.90
37204;DHT22;23098;48.054;10.636;2023-08-21T12:29:56;34.20;72.80
37204;DHT22;23098;48.054;10.636;2023-08-21T12:32:21;34.20;73.50
37204;DHT22;23098;48.054;10.636;2023-08-21T12:34:47;34.30;72.80
37204;DHT22;23098;48.054;10.636;2023-08-21T12:37:13;34.40;72.80
37204;DHT22;23098;48.054;10.636;2023-08-21T12:39:38;34.50;73.70
37204;DHT22;23098;48.054;10.636;2023-08-21T12:42:04;34.60;73.70
37204;DHT22;23098;48.054;10.636;2023-08-21T12:44:30;34.00;71.40
37204;DHT22;23098;48.054;10.636;2023-08-21T12:46:55;34.30;73.10
37204;DHT22;23098;48.054;10.636;2023-08-21T12:49:21;34.40;74.20
37204;DHT22;23098;48.054;10.636;2023-08-21T12:51:46;34.60;74.50
37204;DHT22;23098;48.054;10.636;2023-08-21T12:54:12;34.60;74.10
37204;DHT22;23098;48.054;10.636;2023-08-21T12:56:37;33.90;74.00
37204;DHT22;23098;48.054;10.636;2023-08-21T12:59:04;34.50;71.80
37204;DHT22;23098;48.054;10.636;2023-08-21T13:01:30;35.00;71.00
37204;DHT22;23098;48.054;10.636;2023-08-21T13:03:57;35.10;69.70
37204;DHT22;23098;48.054;10.636;2023-08-21T13:06:22;35.10;70.50
37204;DHT22;23098;48.054;10.636;2023-08-21T13:08:48;35.40;69.50
37204;DHT22;23098;48.054;10.636;2023-08-21T13:11:15;35.30;70.30
37204;DHT22;23098;48.054;10.636;2023-08-21T13:13:40;35.30;69.50
37204;DHT22;23098;48.054;10.636;2023-08-21T13:16:06;35.40;69.30
37204;DHT22;23098;48.054;10.636;2023-08-21T13:18:31;35.40;69.00
37204;DHT22;23098;48.054;10.636;2023-08-21T13:20:57;35.60;68.50
37204;DHT22;23098;48.054;10.636;2023-08-21T13:23:23;35.80;69.00
37204;DHT22;23098;48.054;10.636;2023-08-21T13:25:49;35.40;67.80
37204;DHT22;23098;48.054;10.636;2023-08-21T13:28:14;35.30;68.50
37204;DHT22;23098;48.054;10.636;2023-08-21T13:30:40;35.00;68.10
37204;DHT22;23098;48.054;10.636;2023-08-21T13:33:05;34.70;69.10
37204;DHT22;23098;48.054;10.636;2023-08-21T13:35:32;34.30;68.80
37204;DHT22;23098;48.054;10.636;2023-08-21T13:37:57;34.80;69.10
37204;DHT22;23098;48.054;10.636;2023-08-21T13:40:24;35.00;69.60
37204;DHT22;23098;48.054;10.636;2023-08-21T13:42:50;35.30;70.20
37204;DHT22;23098;48.054;10.636;2023-08-21T13:45:18;35.30;70.70
37204;DHT22;23098;48.054;10.636;2023-08-21T13:47:52;35.50;69.60
37204;DHT22;23098;48.054;10.636;2023-08-21T13:50:19;35.10;69.00
37204;DHT22;23098;48.054;10.636;2023-08-21T13:52:46;35.00;69.20
37204;DHT22;23098;48.054;10.636;2023-08-21T13:55:13;34.80;68.30
37204;DHT22;23098;48.054;10.636;2023-08-21T13:57:39;34.90;69.30
37204;DHT22;23098;48.054;10.636;2023-08-21T14:00:06;35.00;70.60
37204;DHT22;23098;48.054;10.636;2023-08-21T14:02:33;35.30;68.60
37204;DHT22;23098;48.054;10.636;2023-08-21T14:05:00;35.30;67.80
37204;DHT22;23098;48.054;10.636;2023-08-21T14:07:25;35.30;66.90
37204;DHT22;23098;48.054;10.636;2023-08-21T14:09:51;35.10;69.10
37204;DHT22;23098;48.054;10.636;2023-08-21T14:12:16;35.40;67.60
37204;DHT22;23098;48.054;10.636;2023-08-21T14:14:42;35.20;67.00
37204;DHT22;23098;48.054;10.636;2023-08-21T14:17:07;35.10;67.70
37204;DHT22;23098;48.054;10.636;2023-08-21T14:19:33;35.20;68.20
37204;DHT22;23098;48.054;10.636;2023-08-21T14:21:58;35.30;67.80
37204;DHT22;23098;48.054;10.636;2023-08-21T14:24:25;35.70;67.30
37204;DHT22;23098;48.054;10.636;2023-08-21T14:26:50;35.90;67.80
37204;DHT22;23098;48.054;10.636;2023-08-21T14:29:16;35.60;66.40
37204;DHT22;23098;48.054;10.636;2023-08-21T14:31:41;35.60;67.70
37204;DHT22;23098;48.054;10.636;2023-08-21T14:34:07;35.60;66.30
37204;DHT22;23098;48.054;10.636;2023-08-21T14:36:32;35.60;65.60
37204;DHT22;23098;48.054;10.636;2023-08-21T14:38:59;35.10;66.30
37204;DHT22;23098;48.054;10.636;2023-08-21T14:41:24;35.30;67.60
37204;DHT22;23098;48.054;10.636;2023-08-21T14:43:50;35.40;66.70
37204;DHT22;23098;48.054;10.636;2023-08-21T14:46:16;35.50;66.90
37204;DHT22;23098;48.054;10.636;2023-08-21T14:48:41;35.50;66.20
37204;DHT22;23098;48.054;10.636;2023-08-21T14:51:07;35.20;66.30
37204;DHT22;23098;48.054;10.636;2023-08-21T14:53:32;35.20;66.70
37204;DHT22;23098;48.054;10.636;2023-08-21T14:55:58;35.40;66.30
37204;DHT22;23098;48.054;10.636;2023-08-21T14:58:24;35.20;67.10
37204;DHT22;23098;48.054;10.636;2023-08-21T15:00:53;35.00;66.90
37204;DHT22;23098;48.054;10.636;2023-08-21T15:03:19;34.80;67.30
37204;DHT22;23098;48.054;10.636;2023-08-21T15:05:45;35.00;68.40
37204;DHT22;23098;48.054;10.636;2023-08-21T15:08:10;34.80;69.70
37204;DHT22;23098;48.054;10.636;2023-08-21T15:10:36;34.40;70.40
37204;DHT22;23098;48.054;10.636;2023-08-21T15:13:02;34.20;70.20
37204;DHT22;23098;48.054;10.636;2023-08-21T15:15:27;34.40;69.20
37204;DHT22;23098;48.054;10.636;2023-08-21T15:17:53;34.30;69.00
37204;DHT22;23098;48.054;10.636;2023-08-21T15:20:18;34.20;69.70